Time;durP1;ratioP1;P1;durP2;ratioP2;P2;SDS_P1;SDS_P2;PMS_P1;PMS_P2;Temp;Humidity;BMP_temperature;BMP_pressure;BME280_temperature;BME280_humidity;BME280_pressure;Samples;Min_cycle;Max_cycle;Signal;HPM_P1;HPM_P2
2022/04/26 03:37:19;;;;;;;42.70;32.17;;;9.80;99.90;;;;;;5109882;28;20955;-36
2022/04/26 03:39:45;;;;;;;45.37;32.83;;;10.20;99.90;;;;;;5105594;28;20422;-36
2022/04/26 03:42:11;;;;;;;47.57;34.50;;;10.10;99.90;;;;;;5125070;28;20237;-36
2022/04/26 03:44:38;;;;;;;46.70;33.40;;;10.00;99.90;;;;;;5123707;27;20516;-36
2022/04/26 03:47:04;;;;;;;47.80;34.40;;;9.80;99.90;;;;;;5126519;27;20436;-36
2022/04/26 03:49:29;;;;;;;51.87;37.00;;;10.00;99.90;;;;;;5124364;27;20433;-36
2022/04/26 03:51:55;;;;;;;49.57;35.03;;;10.00;99.90;;;;;;5105131;28;20440;-36
2022/04/26 03:54:22;;;;;;;54.27;35.13;;;10.00;99.90;;;;;;5105727;28;20441;-36
2022/04/26 03:56:48;;;;;;;46.77;34.23;;;10.20;99.90;;;;;;5125913;28;20645;-36
2022/04/26 03:59:14;;;;;;;50.17;34.20;;;9.80;99.90;;;;;;5114485;28;20456;-36
2022/04/26 04:01:40;;;;;;;53.07;34.73;;;9.80;99.90;;;;;;5124983;28;20417;-36
2022/04/26 04:04:06;;;;;;;49.90;35.33;;;9.80;99.90;;;;;;5125516;28;20427;-36
2022/04/26 04:06:31;;;;;;;71.97;39.63;;;9.80;99.90;;;;;;5106960;28;20183;-36
2022/04/26 04:08:57;;;;;;;56.83;37.63;;;9.90;99.90;;;;;;5099433;28;20548;-36
2022/04/26 04:11:23;;;;;;;60.03;37.60;;;9.90;99.90;;;;;;5111177;28;20249;-36
2022/04/26 04:13:49;;;;;;;63.57;39.40;;;9.90;99.90;;;;;;5104646;28;20836;-36
2022/04/26 04:16:15;;;;;;;56.23;36.00;;;9.70;99.90;;;;;;5111642;28;20195;-36
2022/04/26 04:21:25;;;;;;;51.90;33.37;;;9.70;99.90;;;;;;5094132;28;20622;-36
2022/04/26 04:23:51;;;;;;;44.10;31.80;;;9.70;99.90;;;;;;5093778;28;20521;-36
2022/04/26 04:26:16;;;;;;;40.47;26.70;;;9.70;99.90;;;;;;5100173;28;20778;-36
2022/04/26 04:28:42;;;;;;;29.47;21.70;;;9.70;99.90;;;;;;5108886;28;20626;-36
2022/04/26 04:31:09;;;;;;;31.37;22.90;;;9.60;99.90;;;;;;5111465;28;20195;-36
2022/04/26 04:33:36;;;;;;;32.33;22.27;;;9.70;99.90;;;;;;5110832;28;20223;-36
2022/04/26 04:36:02;;;;;;;29.13;20.13;;;9.70;99.90;;;;;;5098332;28;20450;-36
2022/04/26 04:38:28;;;;;;;24.70;18.70;;;9.60;99.90;;;;;;5091238;28;20511;-36
2022/04/26 04:40:53;;;;;;;25.70;17.27;;;9.60;99.90;;;;;;5095430;28;20438;-36
2022/04/26 04:43:19;;;;;;;21.93;16.23;;;9.90;99.90;;;;;;5091114;28;20189;-36
2022/04/26 04:45:45;;;;;;;17.73;15.23;;;9.70;99.90;;;;;;5089309;28;20224;-36
2022/04/26 04:48:10;;;;;;;18.87;14.67;;;9.50;99.90;;;;;;5090965;28;20241;-36
2022/04/26 04:50:36;;;;;;;19.70;16.00;;;9.50;99.90;;;;;;5090015;28;20204;-36
2022/04/26 04:53:02;;;;;;;20.80;16.13;;;9.60;99.90;;;;;;5087825;28;20199;-36
2022/04/26 04:55:29;;;;;;;18.83;13.70;;;9.40;99.90;;;;;;5101400;28;20607;-36
2022/04/26 04:57:54;;;;;;;16.53;14.77;;;9.50;99.90;;;;;;5106563;28;20473;-36
2022/04/26 05:00:20;;;;;;;15.67;13.63;;;9.30;99.90;;;;;;5091023;28;20445;-36
2022/04/26 05:02:46;;;;;;;15.70;13.23;;;9.50;99.90;;;;;;5090855;28;20188;-36
2022/04/26 05:05:12;;;;;;;15.03;13.43;;;9.70;99.90;;;;;;5089697;28;20453;-36
2022/04/26 05:07:38;;;;;;;16.40;12.20;;;9.40;99.90;;;;;;5090640;28;20549;-36
2022/04/26 05:10:06;;;;;;;20.70;14.50;;;9.30;99.90;;;;;;5090389;28;20430;-36
2022/04/26 05:12:33;;;;;;;16.80;13.23;;;9.40;99.90;;;;;;5107959;28;20548;-36
2022/04/26 05:14:59;;;;;;;15.93;13.40;;;9.20;99.90;;;;;;5104255;28;20479;-36
2022/04/26 05:17:27;;;;;;;16.60;13.10;;;9.30;99.90;;;;;;5087391;28;20468;-36
2022/04/26 05:19:53;;;;;;;17.93;13.27;;;9.30;99.90;;;;;;5084287;28;20796;-36
2022/04/26 05:22:19;;;;;;;19.93;13.03;;;9.10;99.90;;;;;;5089222;28;21064;-36
2022/04/26 05:24:54;;;;;;;16.90;14.03;;;9.20;99.90;;;;;;5094375;28;20441;-36
2022/04/26 05:27:29;;;;;;;15.60;12.40;;;9.20;99.90;;;;;;5108902;28;20183;-36
2022/04/26 05:29:55;;;;;;;14.20;11.67;;;9.20;99.90;;;;;;5109187;28;20437;-36
2022/04/26 05:32:22;;;;;;;13.57;11.20;;;9.40;99.90;;;;;;5084088;28;20912;-36
2022/04/26 05:34:58;;;;;;;14.13;12.63;;;9.30;99.90;;;;;;5090407;28;20422;-36
2022/04/26 05:37:24;;;;;;;17.73;12.83;;;9.40;99.90;;;;;;5089689;28;20465;-36
2022/04/26 05:39:50;;;;;;;16.10;12.10;;;9.20;99.90;;;;;;5088795;28;20426;-36
2022/04/26 05:42:15;;;;;;;15.60;10.97;;;9.30;99.90;;;;;;5109335;28;20426;-36
2022/04/26 05:44:42;;;;;;;14.80;12.23;;;9.20;99.90;;;;;;5100248;28;20187;-36
2022/04/26 05:47:09;;;;;;;16.87;12.50;;;9.20;99.90;;;;;;5091495;28;20195;-36
2022/04/26 05:49:35;;;;;;;17.63;11.90;;;9.10;99.90;;;;;;5098619;28;20425;-36
2022/04/26 05:52:01;;;;;;;12.97;11.20;;;9.10;99.90;;;;;;5096536;28;20473;-36
2022/04/26 05:54:27;;;;;;;14.47;11.37;;;9.10;99.90;;;;;;5090480;28;20450;-36
2022/04/26 05:56:53;;;;;;;14.50;11.30;;;8.90;99.90;;;;;;5084871;28;20462;-36
2022/04/26 05:59:20;;;;;;;14.37;10.93;;;8.90;99.90;;;;;;5089592;28;20254;-36
2022/04/26 06:01:46;;;;;;;13.80;11.60;;;8.90;99.90;;;;;;5109406;28;20424;-36
2022/04/26 06:04:11;;;;;;;15.90;11.83;;;9.20;99.90;;;;;;5109363;28;20417;-36
2022/04/26 06:06:37;;;;;;;16.73;11.83;;;9.00;99.90;;;;;;5101325;28;20422;-36
2022/04/26 06:09:03;;;;;;;12.70;11.13;;;8.90;99.90;;;;;;5095179;28;20196;-36
2022/04/26 06:11:29;;;;;;;16.83;12.13;;;9.00;99.90;;;;;;5096484;28;20741;-36
2022/04/26 06:13:55;;;;;;;17.03;11.70;;;9.00;99.90;;;;;;5102230;28;20514;-36
2022/04/26 06:16:20;;;;;;;14.97;12.20;;;8.90;99.90;;;;;;5109621;28;20188;-36
2022/04/26 06:18:46;;;;;;;15.33;12.93;;;8.80;99.90;;;;;;5110003;28;20215;-36
2022/04/26 06:21:12;;;;;;;13.43;11.70;;;9.10;99.90;;;;;;5099970;28;20192;-36
2022/04/26 06:23:38;;;;;;;16.90;11.40;;;8.80;99.90;;;;;;5089463;28;20667;-36
2022/04/26 06:26:04;;;;;;;16.83;13.50;;;8.70;99.90;;;;;;5096869;28;20213;-36
2022/04/26 06:28:30;;;;;;;16.93;11.93;;;8.80;99.90;;;;;;5109897;28;20430;-36
2022/04/26 06:30:56;;;;;;;14.87;11.37;;;8.70;99.90;;;;;;5099321;28;20188;-36
2022/04/26 06:33:22;;;;;;;14.57;12.60;;;9.10;99.90;;;;;;5095506;28;20271;-36
2022/04/26 06:35:47;;;;;;;17.07;12.87;;;8.90;99.90;;;;;;5089125;28;20560;-36
2022/04/26 06:38:14;;;;;;;17.00;13.47;;;8.80;99.90;;;;;;5088816;28;20523;-36
2022/04/26 06:40:40;;;;;;;21.17;14.03;;;9.00;99.90;;;;;;5096339;28;20206;-36
2022/04/26 06:43:05;;;;;;;18.13;13.40;;;9.10;99.90;;;;;;5109408;28;20434;-36
2022/04/26 06:45:31;;;;;;;20.33;14.67;;;9.00;99.90;;;;;;5103396;28;20183;-36
2022/04/26 06:47:58;;;;;;;22.10;14.30;;;9.10;99.90;;;;;;5109374;28;20195;-36
2022/04/26 06:50:24;;;;;;;24.60;15.00;;;9.10;99.90;;;;;;5102839;28;20844;-36
2022/04/26 06:52:50;;;;;;;23.20;17.50;;;9.00;99.90;;;;;;5095150;28;20438;-36
2022/04/26 06:55:15;;;;;;;21.80;16.60;;;9.10;99.90;;;;;;5102043;28;20248;-36
2022/04/26 06:57:41;;;;;;;23.60;18.57;;;9.10;99.90;;;;;;5098812;28;20269;-36
2022/04/26 07:00:08;;;;;;;25.73;17.90;;;9.10;99.90;;;;;;5098124;28;20184;-36
2022/04/26 07:02:34;;;;;;;27.53;19.83;;;9.20;99.90;;;;;;5098567;28;20173;-36
2022/04/26 07:05:00;;;;;;;26.70;20.03;;;9.20;99.90;;;;;;5096697;28;20550;-36
2022/04/26 07:07:26;;;;;;;34.10;23.17;;;9.50;99.90;;;;;;5097859;28;20524;-36
2022/04/26 07:09:52;;;;;;;31.83;21.67;;;9.20;99.90;;;;;;5093237;28;20857;-36
2022/04/26 07:12:17;;;;;;;32.80;22.57;;;9.20;99.90;;;;;;5089017;28;20694;-36
2022/04/26 07:14:43;;;;;;;38.17;24.93;;;9.30;99.90;;;;;;5092912;28;20541;-36
2022/04/26 07:17:10;;;;;;;41.87;25.00;;;9.40;99.90;;;;;;5103346;28;20214;-36
2022/04/26 07:19:35;;;;;;;57.63;30.17;;;9.30;99.90;;;;;;5108975;28;20759;-36
2022/04/26 07:22:03;;;;;;;51.73;30.00;;;9.40;99.90;;;;;;5092226;28;20442;-35
2022/04/26 07:24:33;;;;;;;60.10;33.50;;;9.40;99.90;;;;;;5088774;28;20204;-36
2022/04/26 07:26:59;;;;;;;48.93;29.10;;;9.40;99.90;;;;;;5102557;28;20437;-36
2022/04/26 07:29:25;;;;;;;45.37;27.70;;;9.60;99.90;;;;;;5106773;28;20429;-36
2022/04/26 07:31:50;;;;;;;48.90;28.33;;;9.40;99.90;;;;;;5103441;28;20502;-36
2022/04/26 07:34:22;;;;;;;45.93;28.60;;;9.30;99.90;;;;;;5109116;28;20441;-36
2022/04/26 07:36:48;;;;;;;47.87;31.63;;;9.40;99.90;;;;;;5099636;28;20193;-36
2022/04/26 07:39:17;;;;;;;45.63;31.60;;;9.60;99.90;;;;;;5088616;28;20742;-36
2022/04/26 07:41:44;;;;;;;44.50;32.90;;;9.60;99.90;;;;;;5090538;28;20849;-36
2022/04/26 07:44:10;;;;;;;43.87;31.07;;;9.70;99.90;;;;;;5110302;28;20413;-36
2022/04/26 07:46:37;;;;;;;47.43;31.63;;;9.80;99.90;;;;;;5109855;28;20421;-36
2022/04/26 07:49:07;;;;;;;43.53;29.40;;;10.00;99.90;;;;;;5112692;28;20286;-36
2022/04/26 07:51:33;;;;;;;40.40;29.23;;;10.20;99.90;;;;;;5075511;28;20462;-36
2022/04/26 07:54:02;;;;;;;37.30;24.53;;;10.20;99.90;;;;;;5092353;28;20862;-36
2022/04/26 07:56:27;;;;;;;38.03;24.20;;;10.00;99.90;;;;;;5092537;28;20187;-36
2022/04/26 07:58:54;;;;;;;30.80;21.97;;;10.10;99.90;;;;;;5112769;28;20482;-36
2022/04/26 08:01:20;;;;;;;32.07;23.40;;;10.00;99.90;;;;;;5098952;28;20192;-36
2022/04/26 08:03:46;;;;;;;33.20;23.43;;;10.00;99.90;;;;;;5112692;28;20428;-36
2022/04/26 08:06:12;;;;;;;28.60;22.67;;;10.10;99.90;;;;;;5108733;28;20426;-36
2022/04/26 08:08:39;;;;;;;31.57;22.80;;;9.90;99.90;;;;;;5091816;28;20263;-36
2022/04/26 08:11:05;;;;;;;30.40;21.50;;;10.00;99.90;;;;;;5093662;28;20191;-36
2022/04/26 08:13:32;;;;;;;31.10;22.83;;;9.90;99.90;;;;;;5107322;28;20435;-36
2022/04/26 08:15:58;;;;;;;29.23;22.83;;;10.00;99.90;;;;;;5101321;28;20491;-36
2022/04/26 08:18:24;;;;;;;27.03;21.77;;;10.10;99.90;;;;;;5112391;28;20863;-36
2022/04/26 08:20:49;;;;;;;28.57;21.87;;;10.10;99.90;;;;;;5107213;28;20476;-36
2022/04/26 08:23:15;;;;;;;29.77;22.70;;;10.20;99.90;;;;;;5090946;28;20204;-36
2022/04/26 08:28:28;;;;;;;31.13;21.67;;;10.40;99.90;;;;;;5105724;28;20192;-36
2022/04/26 08:30:57;;;;;;;31.67;23.10;;;10.30;99.90;;;;;;5108698;28;20467;-36
2022/04/26 08:33:23;;;;;;;27.47;21.97;;;10.30;99.90;;;;;;5111963;28;20470;-36
2022/04/26 08:35:49;;;;;;;27.67;21.93;;;10.40;99.90;;;;;;5110719;28;20448;-36
2022/04/26 08:38:14;;;;;;;28.30;23.50;;;10.60;99.90;;;;;;5093862;28;20628;-36
2022/04/26 08:40:42;;;;;;;26.53;22.00;;;10.70;99.90;;;;;;5090824;28;20200;-36
2022/04/26 08:43:08;;;;;;;25.50;21.30;;;10.70;99.90;;;;;;5105880;28;20179;-36
2022/04/26 08:45:38;;;;;;;29.37;23.50;;;10.60;99.90;;;;;;5105061;28;20421;-36
2022/04/26 08:51:02;;;;;;;24.70;21.40;;;10.70;99.90;;;;;;5111455;28;20435;-36
2022/04/26 08:53:30;;;;;;;28.57;22.03;;;10.90;99.90;;;;;;5092425;28;20430;-36
2022/04/26 08:55:59;;;;;;;27.63;21.87;;;10.90;99.90;;;;;;5091225;28;20426;-36
2022/04/26 08:58:27;;;;;;;29.43;22.80;;;10.70;99.90;;;;;;5110794;28;20473;-36
2022/04/26 09:01:22;;;;;;;25.57;21.10;;;10.90;99.90;;;;;;5101972;27;20441;-36
2022/04/26 09:03:54;;;;;;;25.40;21.43;;;10.90;99.90;;;;;;5111575;28;20582;-36
2022/04/26 09:06:34;;;;;;;27.47;23.20;;;10.80;99.90;;;;;;5110021;28;20469;-36
2022/04/26 09:09:13;;;;;;;25.57;21.97;;;10.90;99.90;;;;;;5090150;28;20451;-36
2022/04/26 09:11:40;;;;;;;28.77;22.83;;;10.90;99.90;;;;;;5092068;28;20421;-36
2022/04/26 09:14:09;;;;;;;28.57;21.50;;;11.10;99.90;;;;;;5102728;28;20482;-36
2022/04/26 09:16:36;;;;;;;25.87;21.23;;;11.40;99.90;;;;;;5105684;28;20434;-36
2022/04/26 09:19:06;;;;;;;26.83;21.87;;;11.20;99.90;;;;;;5111041;28;20469;-36
2022/04/26 09:21:33;;;;;;;25.03;20.47;;;11.40;99.90;;;;;;5099624;28;20434;-36
2022/04/26 09:24:01;;;;;;;26.27;21.07;;;11.50;99.90;;;;;;5090239;28;20592;-36
2022/04/26 09:26:38;;;;;;;23.33;19.60;;;11.60;99.90;;;;;;5082551;28;20418;-36
2022/04/26 09:29:08;;;;;;;23.40;19.23;;;11.70;99.90;;;;;;5109704;28;20436;-36
2022/04/26 09:31:38;;;;;;;22.17;18.60;;;11.80;99.90;;;;;;5109661;28;20428;-36
2022/04/26 09:34:23;;;;;;;24.00;18.67;;;11.90;99.90;;;;;;5110664;28;20512;-36
2022/04/26 09:36:50;;;;;;;23.00;19.20;;;12.00;99.90;;;;;;5108356;28;20421;-36
2022/04/26 09:39:18;;;;;;;22.67;18.20;;;12.00;99.90;;;;;;5089957;28;20450;-36
2022/04/26 09:41:49;;;;;;;24.33;19.67;;;12.10;99.90;;;;;;5092077;28;20511;-36
2022/04/26 09:44:15;;;;;;;23.10;19.17;;;12.10;99.90;;;;;;5110716;28;20449;-36
2022/04/26 09:46:44;;;;;;;21.73;19.20;;;12.20;99.90;;;;;;5100687;28;20448;-36
2022/04/26 09:49:14;;;;;;;22.60;20.03;;;12.40;99.90;;;;;;5109381;28;20190;-36
2022/04/26 09:51:41;;;;;;;22.50;18.77;;;12.50;99.90;;;;;;5109806;28;20418;-36
2022/04/26 09:54:07;;;;;;;24.03;19.47;;;12.80;99.90;;;;;;5089547;28;20437;-35
2022/04/26 09:56:34;;;;;;;22.70;19.20;;;12.90;99.90;;;;;;5094300;28;20445;-36
2022/04/26 09:59:03;;;;;;;23.10;19.30;;;13.10;99.90;;;;;;5110405;28;20457;-36
2022/04/26 10:01:39;;;;;;;21.50;19.20;;;13.10;99.90;;;;;;5103995;28;20866;-36
2022/04/26 10:04:08;;;;;;;25.70;19.30;;;13.10;99.90;;;;;;5109086;28;20516;-36
2022/04/26 10:06:37;;;;;;;21.20;19.00;;;13.10;99.90;;;;;;5108039;28;20421;-36
2022/04/26 10:09:07;;;;;;;24.40;19.60;;;13.10;99.90;;;;;;5090011;28;20444;-36
2022/04/26 10:11:33;;;;;;;22.67;20.30;;;13.20;99.90;;;;;;5088803;28;20484;-36
2022/04/26 10:14:03;;;;;;;22.60;19.70;;;13.30;99.90;;;;;;5095968;28;21027;-36
2022/04/26 10:16:29;;;;;;;21.20;17.43;;;13.40;99.90;;;;;;5107798;28;20807;-36
2022/04/26 10:19:04;;;;;;;20.87;18.67;;;13.30;99.90;;;;;;5110026;28;20497;-36
2022/04/26 10:21:29;;;;;;;21.70;17.47;;;13.20;99.90;;;;;;5097977;28;20991;-36
2022/04/26 10:23:56;;;;;;;22.33;17.97;;;13.10;99.90;;;;;;5088357;28;20456;-36
2022/04/26 10:26:26;;;;;;;19.67;17.57;;;13.10;99.90;;;;;;5089096;28;20286;-36
2022/04/26 10:29:01;;;;;;;23.30;17.83;;;13.20;99.90;;;;;;5106899;28;20936;-36
2022/04/26 10:31:57;;;;;;;20.47;17.43;;;13.20;99.90;;;;;;5099124;28;20433;-36
2022/04/26 10:34:33;;;;;;;20.20;17.40;;;13.20;99.90;;;;;;5102827;28;20516;-36
2022/04/26 10:37:08;;;;;;;23.20;19.20;;;13.30;99.90;;;;;;5109204;28;20422;-36
2022/04/26 10:39:45;;;;;;;21.43;18.47;;;13.30;99.90;;;;;;5087851;28;20425;-36
2022/04/26 10:42:16;;;;;;;24.80;21.93;;;13.40;99.90;;;;;;5097542;28;20445;-36
2022/04/26 10:44:46;;;;;;;27.30;23.60;;;13.40;99.90;;;;;;5109582;28;20424;-36
2022/04/26 10:47:24;;;;;;;26.77;21.60;;;13.50;99.90;;;;;;5102908;28;20967;-36
2022/04/26 10:49:51;;;;;;;25.47;22.73;;;13.60;99.90;;;;;;5108930;28;20421;-36
2022/04/26 10:52:23;;;;;;;22.33;19.93;;;13.70;99.90;;;;;;5106572;28;20464;-36
2022/04/26 10:54:55;;;;;;;22.97;20.53;;;13.80;99.90;;;;;;5092939;28;20508;-36
2022/04/26 10:57:22;;;;;;;25.20;19.87;;;13.90;99.90;;;;;;5089459;28;20916;-36
2022/04/26 10:59:51;;;;;;;21.70;17.97;;;14.00;99.90;;;;;;5105869;28;20481;-36
2022/04/26 11:02:19;;;;;;;23.37;20.17;;;14.00;99.90;;;;;;5107825;28;20478;-36
2022/04/26 11:04:45;;;;;;;24.43;20.57;;;14.10;99.90;;;;;;5107849;28;20551;-36
2022/04/26 11:07:16;;;;;;;24.10;20.20;;;14.20;99.90;;;;;;5109690;28;20425;-36
2022/04/26 11:09:49;;;;;;;22.50;19.80;;;14.30;99.90;;;;;;5087911;28;20469;-36
2022/04/26 11:12:23;;;;;;;21.90;19.10;;;14.40;99.90;;;;;;5089813;28;20440;-36
2022/04/26 11:14:52;;;;;;;19.90;17.93;;;14.60;99.90;;;;;;5102159;28;20433;-36
2022/04/26 11:17:19;;;;;;;20.33;18.23;;;14.70;99.90;;;;;;5098569;28;20473;-36
2022/04/26 11:19:50;;;;;;;21.83;19.13;;;14.80;99.90;;;;;;5111219;28;20432;-36
2022/04/26 11:22:18;;;;;;;20.60;18.57;;;14.80;99.90;;;;;;5096835;28;20483;-36
2022/04/26 11:30:44;;;;;;;26.20;20.50;;;14.70;99.90;;;;;;5112647;28;20429;-36
2022/04/26 11:33:22;;;;;;;21.90;19.47;;;14.80;99.90;;;;;;5095897;28;20432;-36
2022/04/26 11:35:56;;;;;;;20.83;17.43;;;15.10;99.90;;;;;;5113486;28;20417;-36
2022/04/26 11:38:23;;;;;;;19.73;16.40;;;15.30;99.90;;;;;;5103878;28;20464;-36
2022/04/26 11:40:54;;;;;;;19.23;17.13;;;15.50;99.90;;;;;;5092465;28;20427;-36
2022/04/26 11:43:26;;;;;;;18.13;16.43;;;15.60;99.90;;;;;;5093693;28;20556;-36
2022/04/26 11:45:54;;;;;;;19.37;17.20;;;15.60;99.90;;;;;;5113067;28;20433;-34
2022/04/26 11:48:28;;;;;;;20.43;18.33;;;15.70;99.90;;;;;;5109879;28;20417;-36
2022/04/26 11:50:55;;;;;;;19.90;16.97;;;15.70;99.90;;;;;;5112367;28;20417;-36
2022/04/26 11:53:23;;;;;;;17.33;15.63;;;15.90;99.90;;;;;;5102693;28;20432;-36
2022/04/26 11:55:53;;;;;;;17.90;16.10;;;15.90;99.90;;;;;;5092147;28;20564;-36
2022/04/26 11:58:22;;;;;;;16.80;15.10;;;15.90;99.90;;;;;;5097913;28;20457;-36
2022/04/26 12:01:02;;;;;;;15.07;13.57;;;15.90;99.90;;;;;;5112073;28;20912;-36
2022/04/26 12:03:30;;;;;;;17.40;15.70;;;15.80;99.90;;;;;;5100062;28;20460;-36
2022/04/26 12:06:03;;;;;;;17.07;14.97;;;15.70;99.90;;;;;;5111176;28;20405;-34
2022/04/26 12:08:39;;;;;;;18.00;16.20;;;15.60;99.90;;;;;;5104418;28;20461;-34
2022/04/26 12:11:18;;;;;;;17.47;15.63;;;15.60;99.90;;;;;;5091400;28;20448;-34
2022/04/26 12:13:44;;;;;;;18.10;16.20;;;15.50;99.90;;;;;;5097813;28;20528;-34
2022/04/26 12:16:18;;;;;;;19.67;17.50;;;15.30;99.90;;;;;;5111032;28;20877;-34
2022/04/26 12:18:55;;;;;;;19.07;16.90;;;15.30;99.90;;;;;;5104105;28;21243;-34
2022/04/26 12:21:22;;;;;;;18.83;17.10;;;15.40;99.90;;;;;;5101651;28;20424;-34
2022/04/26 12:24:07;;;;;;;20.40;18.20;;;15.60;99.90;;;;;;5091066;28;20426;-34
2022/04/26 12:26:33;;;;;;;19.37;17.37;;;15.60;99.90;;;;;;5086183;28;20917;-34
2022/04/26 12:28:59;;;;;;;18.77;16.97;;;15.70;99.90;;;;;;5096728;28;20416;-36
2022/04/26 12:31:29;;;;;;;18.93;17.13;;;15.90;99.90;;;;;;5108993;27;20210;-36
2022/04/26 12:34:12;;;;;;;24.03;19.60;;;16.00;99.90;;;;;;5110790;28;20417;-36
2022/04/26 12:36:58;;;;;;;25.30;22.90;;;16.30;99.90;;;;;;5110686;28;20425;-36
2022/04/26 12:39:41;;;;;;;21.00;18.97;;;16.50;99.90;;;;;;5097147;28;20438;-36
2022/04/26 12:42:08;;;;;;;21.93;19.73;;;16.60;99.90;;;;;;5091290;28;20414;-37
2022/04/26 12:44:35;;;;;;;21.67;19.60;;;16.40;99.90;;;;;;5105436;28;20425;-36
2022/04/26 12:52:43;;;;;;;20.73;18.77;;;15.90;99.90;;;;;;5110747;28;20417;-36
2022/04/26 12:55:08;;;;;;;21.23;19.00;;;15.80;99.90;;;;;;5092009;28;20429;-36
2022/04/26 12:57:51;;;;;;;19.97;18.13;;;15.70;99.90;;;;;;5092170;28;20268;-36
2022/04/26 13:00:19;;;;;;;19.87;17.87;;;15.50;99.90;;;;;;5111093;28;20187;-36
2022/04/26 13:02:46;;;;;;;19.23;17.23;;;15.50;99.90;;;;;;5103374;28;20415;-36
2022/04/26 13:05:12;;;;;;;19.57;17.60;;;15.30;99.90;;;;;;5110227;28;20941;-36
2022/04/26 13:07:37;;;;;;;18.60;16.90;;;15.20;99.90;;;;;;5111405;28;20434;-36
2022/04/26 13:10:04;;;;;;;20.30;18.33;;;15.20;99.90;;;;;;5092660;28;20189;-36
2022/04/26 13:12:31;;;;;;;20.90;18.77;;;15.10;99.90;;;;;;5094625;28;20188;-36
2022/04/26 13:14:58;;;;;;;19.53;17.37;;;15.00;99.90;;;;;;5100678;28;20782;-36
2022/04/26 13:17:24;;;;;;;21.33;19.33;;;15.00;99.90;;;;;;5107362;28;20882;-36
2022/04/26 13:19:49;;;;;;;18.93;17.13;;;15.00;99.90;;;;;;5110595;28;20448;-37
2022/04/26 13:22:16;;;;;;;20.37;18.43;;;15.00;99.90;;;;;;5094887;28;20265;-36
2022/04/26 13:24:42;;;;;;;20.90;18.73;;;14.90;99.90;;;;;;5089862;28;20257;-36
2022/04/26 13:27:08;;;;;;;19.10;17.10;;;14.80;99.90;;;;;;5090610;28;20418;-36
2022/04/26 13:29:33;;;;;;;19.67;17.57;;;14.70;99.90;;;;;;5099645;28;20434;-36
2022/04/26 13:32:00;;;;;;;21.27;19.10;;;14.60;99.90;;;;;;5109918;28;20480;-36
2022/04/26 13:34:26;;;;;;;22.30;20.00;;;14.60;99.90;;;;;;5111017;28;20188;-36
2022/04/26 13:36:52;;;;;;;21.60;19.00;;;14.50;99.90;;;;;;5110772;28;20420;-36
2022/04/26 13:39:18;;;;;;;22.77;20.37;;;14.50;99.90;;;;;;5099899;28;20192;-36
2022/04/26 13:41:44;;;;;;;22.13;19.73;;;14.40;99.90;;;;;;5088819;28;20488;-36
2022/04/26 13:44:09;;;;;;;22.70;20.37;;;14.50;99.90;;;;;;5099716;28;20186;-36
2022/04/26 13:46:36;;;;;;;20.30;18.20;;;14.50;99.90;;;;;;5110929;28;20184;-36
2022/04/26 13:49:03;;;;;;;21.70;19.50;;;14.40;99.90;;;;;;5100250;28;20266;-36
2022/04/26 13:51:29;;;;;;;21.00;18.67;;;14.40;99.90;;;;;;5110051;28;20429;-36
2022/04/26 13:53:55;;;;;;;20.97;18.93;;;14.30;99.90;;;;;;5100833;28;20453;-36
2022/04/26 13:56:21;;;;;;;21.07;18.87;;;14.10;99.90;;;;;;5090264;28;20433;-36
2022/04/26 13:58:46;;;;;;;20.27;18.23;;;13.90;99.90;;;;;;5099503;28;20247;-36
2022/04/26 14:01:12;;;;;;;20.57;18.37;;;13.80;99.90;;;;;;5109835;28;20199;-36
2022/04/26 14:03:38;;;;;;;22.10;19.67;;;13.60;99.90;;;;;;5104001;28;20535;-37
2022/04/26 14:06:03;;;;;;;21.03;18.80;;;13.60;99.90;;;;;;5108776;28;20207;-36
2022/04/26 14:08:31;;;;;;;21.90;18.83;;;13.50;99.90;;;;;;5107601;28;20203;-36
2022/04/26 14:10:57;;;;;;;19.97;17.63;;;13.50;99.90;;;;;;5091411;28;20188;-36
2022/04/26 14:13:22;;;;;;;22.47;20.10;;;13.50;99.90;;;;;;5090217;28;20442;-36
2022/04/26 14:24:05;;;;;;;21.67;19.50;;;13.80;99.90;;;;;;5088988;28;20899;-37
2022/04/26 14:26:31;;;;;;;22.90;20.57;;;13.90;99.90;;;;;;5086001;28;20418;-36
2022/04/26 14:28:57;;;;;;;23.37;20.87;;;13.90;99.90;;;;;;5094076;28;20468;-36
2022/04/26 14:31:22;;;;;;;25.20;22.80;;;14.00;99.90;;;;;;5109200;28;20457;-36
2022/04/26 14:33:48;;;;;;;23.20;20.97;;;14.00;99.90;;;;;;5098471;28;20187;-36
2022/04/26 14:36:14;;;;;;;22.87;20.47;;;14.00;99.90;;;;;;5109751;28;20191;-36
2022/04/26 14:38:40;;;;;;;23.33;21.00;;;14.00;99.90;;;;;;5107883;28;20242;-36
2022/04/26 14:41:05;;;;;;;23.10;20.80;;;14.00;99.90;;;;;;5088478;28;20897;-36
2022/04/26 14:43:31;;;;;;;23.37;20.97;;;13.90;99.90;;;;;;5092197;28;20188;-36
2022/04/26 14:45:57;;;;;;;23.47;21.07;;;13.90;99.90;;;;;;5109875;28;20188;-36
2022/04/26 14:48:23;;;;;;;23.67;20.23;;;13.90;99.90;;;;;;5102783;28;20203;-36
2022/04/26 14:50:49;;;;;;;23.53;21.30;;;14.00;99.90;;;;;;5108966;28;20257;-36
2022/04/26 14:53:15;;;;;;;23.63;21.20;;;14.00;99.90;;;;;;5109304;28;20428;-34
2022/04/26 14:55:41;;;;;;;25.00;22.30;;;14.00;99.90;;;;;;5092027;28;20438;-34
2022/04/26 14:58:09;;;;;;;24.73;22.43;;;14.00;99.90;;;;;;5089373;28;20208;-36
2022/04/26 15:00:36;;;;;;;23.67;21.43;;;14.00;99.90;;;;;;5100129;28;20982;-36
2022/04/26 15:03:02;;;;;;;25.30;21.40;;;14.00;99.90;;;;;;5107151;28;20436;-37
2022/04/26 15:05:28;;;;;;;24.43;21.93;;;14.00;99.90;;;;;;5107980;28;20919;-36
2022/04/26 15:10:38;;;;;;;24.47;22.07;;;13.90;99.90;;;;;;5092044;28;20180;-36
2022/04/26 15:18:33;;;;;;;25.57;23.07;;;13.90;99.90;;;;;;5098753;28;20561;-36
2022/04/26 15:20:59;;;;;;;25.03;22.40;;;13.90;99.90;;;;;;5101927;28;20887;-36
2022/04/26 15:23:25;;;;;;;25.00;22.37;;;13.90;99.90;;;;;;5088864;28;20434;-36
2022/04/26 15:25:52;;;;;;;21.20;19.00;;;13.90;99.90;;;;;;5088261;28;20441;-36
2022/04/26 15:28:24;;;;;;;18.07;16.27;;;14.00;99.90;;;;;;5088081;28;20798;-36
2022/04/26 15:30:50;;;;;;;13.87;12.50;;;14.00;99.90;;;;;;5091180;28;20766;-36
2022/04/26 15:33:17;;;;;;;11.37;10.37;;;14.00;99.90;;;;;;5090166;28;20455;-36
2022/04/26 15:35:43;;;;;;;10.13;9.17;;;13.90;99.90;;;;;;5109200;28;20433;-36
2022/04/26 15:38:12;;;;;;;9.20;8.30;;;13.70;99.90;;;;;;5108981;28;21208;-36
2022/04/26 15:40:39;;;;;;;9.43;8.60;;;13.60;99.90;;;;;;5093838;28;20867;-36
2022/04/26 15:43:06;;;;;;;8.77;7.97;;;13.40;99.90;;;;;;5094574;28;20520;-36
2022/04/26 15:45:32;;;;;;;10.87;9.73;;;13.30;99.90;;;;;;5095475;28;20480;-36
2022/04/26 15:47:58;;;;;;;10.03;9.13;;;13.30;99.90;;;;;;5106856;28;20497;-36
2022/04/26 15:50:24;;;;;;;9.83;8.60;;;13.30;99.90;;;;;;5108051;28;20512;-36
2022/04/26 15:52:50;;;;;;;10.37;9.23;;;13.10;99.90;;;;;;5108863;28;20541;-36
2022/04/26 15:55:17;;;;;;;10.80;9.80;;;13.00;99.90;;;;;;5097985;28;20480;-36
2022/04/26 15:57:44;;;;;;;13.70;9.47;;;12.80;99.90;;;;;;5085456;28;20952;-36
2022/04/26 16:00:11;;;;;;;11.37;10.20;;;12.80;99.90;;;;;;5087563;28;20453;-36
2022/04/26 16:02:39;;;;;;;11.47;10.37;;;12.80;99.90;;;;;;5088628;28;20930;-36
2022/04/26 16:05:05;;;;;;;12.00;10.93;;;12.80;99.90;;;;;;5096856;28;20516;-36
2022/04/26 16:07:30;;;;;;;14.23;10.53;;;12.80;99.90;;;;;;5105129;28;20569;-36
2022/04/26 16:20:53;;;;;;;11.80;10.70;;;12.70;99.90;;;;;;5088846;28;20414;-33
2022/04/26 16:23:19;;;;;;;13.93;11.70;;;12.60;99.90;;;;;;5091008;28;20985;-36
2022/04/26 16:25:45;;;;;;;13.17;11.93;;;12.50;99.90;;;;;;5098930;28;20898;-36
2022/04/26 16:28:11;;;;;;;12.57;11.30;;;12.50;99.90;;;;;;5093116;28;20179;-36
2022/04/26 16:30:40;;;;;;;13.30;11.90;;;12.60;99.90;;;;;;5090475;28;20421;-36
2022/04/26 16:33:06;;;;;;;12.87;11.30;;;12.60;99.90;;;;;;5091008;28;20457;-36
2022/04/26 16:35:32;;;;;;;11.93;10.83;;;12.70;99.90;;;;;;5110124;28;20428;-36
2022/04/26 16:37:58;;;;;;;13.30;12.00;;;12.70;99.90;;;;;;5111325;28;20461;-36
2022/04/26 16:40:24;;;;;;;11.20;10.10;;;12.80;99.90;;;;;;5101432;28;20430;-36
2022/04/26 16:42:50;;;;;;;13.60;11.40;;;12.90;99.90;;;;;;5100126;28;21082;-36
2022/04/26 16:45:16;;;;;;;14.17;12.77;;;12.90;99.90;;;;;;5101233;28;20657;-36
2022/04/26 16:47:42;;;;;;;12.83;11.63;;;13.00;99.90;;;;;;5094875;28;20472;-36
2022/04/26 16:50:08;;;;;;;11.97;10.77;;;12.90;99.90;;;;;;5096651;28;20180;-36
2022/04/26 16:52:37;;;;;;;12.07;10.87;;;12.90;99.90;;;;;;5100883;28;20430;-36
2022/04/26 16:55:04;;;;;;;12.90;11.70;;;12.50;99.90;;;;;;5098084;28;20442;-36
2022/04/26 16:57:29;;;;;;;11.93;10.60;;;12.80;99.90;;;;;;5097820;28;20511;-36